Bookmark and Share
Track history (hours):
 

Nord Glory

Last reported at 2014-Apr-23 14:33 UTC. Time now 2014-Apr-24 13:52 UTC.
Position N 36°00' E 023°03'.

Length 190 m; draft 12.7 m.

Type: Cargo ship. MMSI: 354206000.

NotesDate/timePositionNaut miles runAvg speedWind from/ knotsBaromVisibWave heightAir tempDewpointWater temp
2014-Apr-23 14:33N 36°00' E 023°03'1211.7
2014-Apr-23 13:32N 36°05' E 023°16'1211.7
2014-Apr-23 12:33N 36°14' E 023°26'1311.3
2014-Apr-23 11:23N 36°24' E 023°36'1011.6
2014-Apr-23 10:30N 36°31' E 023°45'1312.0
2014-Apr-23 09:28N 36°41' E 023°55'1112.1
2014-Apr-23 08:33N 36°49' E 024°04'1211.9
2014-Apr-23 07:33N 36°59' E 024°12'1812.5
2014-Apr-23 06:05N 37°14' E 024°25'713.5
2014-Apr-23 05:33N 37°20' E 024°30'1211.9
2014-Apr-23 04:33N 37°32' E 024°33'1211.9
2014-Apr-23 03:33N 37°44' E 024°35'1212.0
2014-Apr-23 02:33N 37°56' E 024°37'2511.7
2014-Apr-23 00:27N 38°18' E 024°50'8411.6
2014-Apr-22 17:11N 39°34' E 025°37'811.6
2014-Apr-22 16:32N 39°41' E 025°42'1111.6
2014-Apr-22 15:33N 39°52' E 025°48'1111.5
2014-Apr-22 14:33N 40°00' E 025°58'1111.2
2014-Apr-22 13:32N 40°02' E 026°13'3911.8
2014-Apr-22 10:16N 40°28' E 026°50'132 9.0
2014-Apr-21 19:32N 41°25' E 029°28'0 0.2
2014-Apr-21 18:32N 41°25' E 029°27'0 0.3
2014-Apr-21 17:30N 41°25' E 029°27'0 0.4
2014-Apr-21 16:32N 41°25' E 029°26'0 0.4
2014-Apr-21 15:32N 41°25' E 029°26'0 0.3
2014-Apr-21 14:32N 41°25' E 029°26'0 0.3
2014-Apr-21 13:14N 41°25' E 029°25'0 0.4
2014-Apr-21 12:32N 41°25' E 029°25'0 0.3
2014-Apr-21 11:32N 41°25' E 029°24'249 9.5
2014-Apr-20 09:17N 43°21' E 034°23'  

Dump ship's entire track history

sailing weather and tide predictions

Nord Glory — 3FIA5 — position and weather